Time,TemperatureF,DewpointF,PressureIn,WindDirection,WindDirectionDegrees,WindSpeedMPH,WindSpeedGustMPH,Humidity,HourlyPrecipIn,Conditions,Clouds,dailyrainin,SolarRadiationWatts/m^2,SoftwareType,DateUTC
2013-06-22 00:00:00,62.5,59.5,30.20,SE,142,0.0,0.0,90,0.00,,,0.00,0,Wunderground v.1.15,2013-06-22 04:00:00,
2013-06-22 00:10:00,62.8,59.8,30.20,SE,142,0.0,0.0,90,0.00,,,0.00,0,Wunderground v.1.15,2013-06-22 04:10:00,
2013-06-22 00:20:00,62.3,59.3,30.20,SE,142,0.0,0.0,90,0.00,,,0.00,0,Wunderground v.1.15,2013-06-22 04:20:00,
2013-06-22 00:30:00,62.2,59.5,30.20,SE,142,0.0,0.0,91,0.00,,,0.00,0,Wunderground v.1.15,2013-06-22 04:30:00,
2013-06-22 00:40:00,62.8,59.8,30.20,SE,142,0.0,0.0,90,0.00,,,0.00,0,Wunderground v.1.15,2013-06-22 04:40:00,
2013-06-22 00:50:00,62.4,59.1,30.20,SE,142,0.0,0.0,89,0.00,,,0.00,0,Wunderground v.1.15,2013-06-22 04:50:00,
2013-06-22 01:00:00,61.5,58.8,30.20,SE,142,0.0,0.0,91,0.00,,,0.00,0,Wunderground v.1.15,2013-06-22 05:00:00,
2013-06-22 01:10:00,61.0,58.7,30.20,SE,142,0.0,0.0,92,0.00,,,0.00,0,Wunderground v.1.15,2013-06-22 05:10:00,
2013-06-22 01:20:00,61.6,59.6,30.19,SE,142,0.0,0.0,93,0.00,,,0.00,0,Wunderground v.1.15,2013-06-22 05:20:00,
2013-06-22 01:30:00,63.2,61.1,30.19,SE,142,0.0,0.0,93,0.00,,,0.00,0,Wunderground v.1.15,2013-06-22 05:30:00,
2013-06-22 01:40:00,65.0,62.6,30.19,SE,142,0.0,0.0,92,0.00,,,0.00,0,Wunderground v.1.15,2013-06-22 05:40:00,
2013-06-22 01:50:00,65.9,62.9,30.20,SE,142,0.0,0.0,90,0.00,,,0.00,0,Wunderground v.1.15,2013-06-22 05:50:00,
2013-06-22 02:00:00,65.8,62.5,30.19,SE,142,0.0,0.0,89,0.00,,,0.00,0,Wunderground v.1.15,2013-06-22 06:00:00,
2013-06-22 02:10:00,65.8,62.8,30.18,SE,145,0.0,0.0,90,0.00,,,0.00,0,Wunderground v.1.15,2013-06-22 06:10:00,
2013-06-22 02:20:00,66.0,63.0,30.18,SSE,153,0.0,1.0,90,0.00,,,0.00,0,Wunderground v.1.15,2013-06-22 06:20:00,
2013-06-22 02:30:00,66.4,63.4,30.19,SSE,157,0.0,0.0,90,0.00,,,0.00,0,Wunderground v.1.15,2013-06-22 06:30:00,
2013-06-22 02:40:00,66.5,63.5,30.19,SSE,157,0.0,0.0,90,0.00,,,0.00,0,Wunderground v.1.15,2013-06-22 06:40:00,
2013-06-22 02:50:00,66.4,63.4,30.19,SSE,157,0.0,0.0,90,0.00,,,0.00,0,Wunderground v.1.15,2013-06-22 06:50:00,
2013-06-22 03:00:00,66.1,63.1,30.19,SSE,157,0.0,0.0,90,0.00,,,0.00,0,Wunderground v.1.15,2013-06-22 07:00:00,
2013-06-22 03:10:00,65.6,62.6,30.19,SSE,157,0.0,0.0,90,0.00,,,0.00,0,Wunderground v.1.15,2013-06-22 07:10:00,
2013-06-22 03:20:00,64.7,61.7,30.19,SSE,157,0.0,0.0,90,0.00,,,0.00,0,Wunderground v.1.15,2013-06-22 07:20:00,
2013-06-22 03:30:00,63.5,60.8,30.19,SSE,157,0.0,0.0,91,0.00,,,0.00,0,Wunderground v.1.15,2013-06-22 07:30:00,
2013-06-22 03:40:00,63.1,61.0,30.19,SSE,157,0.0,0.0,93,0.00,,,0.00,0,Wunderground v.1.15,2013-06-22 07:40:00,
2013-06-22 03:50:00,62.4,60.3,30.19,SSE,157,0.0,0.0,93,0.00,,,0.00,0,Wunderground v.1.15,2013-06-22 07:50:00,
2013-06-22 04:00:00,62.2,60.5,30.20,SSE,157,0.0,0.0,94,0.00,,,0.00,0,Wunderground v.1.15,2013-06-22 08:00:00,
2013-06-22 04:10:00,61.0,59.3,30.20,SSE,157,0.0,0.0,94,0.00,,,0.00,0,Wunderground v.1.15,2013-06-22 08:10:00,
2013-06-22 04:20:00,62.0,60.6,30.19,SSE,157,0.0,0.0,95,0.00,,,0.00,0,Wunderground v.1.15,2013-06-22 08:20:00,
2013-06-22 04:30:00,61.4,59.7,30.19,SSE,157,0.0,0.0,94,0.00,,,0.00,0,Wunderground v.1.15,2013-06-22 08:30:00,
2013-06-22 04:40:00,60.9,59.5,30.19,SSE,157,0.0,0.0,95,0.00,,,0.00,0,Wunderground v.1.15,2013-06-22 08:40:00,
2013-06-22 04:50:00,60.6,59.2,30.19,SSE,157,0.0,0.0,95,0.00,,,0.00,0,Wunderground v.1.15,2013-06-22 08:50:00,
2013-06-22 05:00:00,60.8,59.7,30.19,SSE,157,0.0,0.0,96,0.00,,,0.00,0,Wunderground v.1.15,2013-06-22 09:00:00,
2013-06-22 05:10:00,60.0,58.6,30.19,SSE,157,0.0,0.0,95,0.00,,,0.00,0,Wunderground v.1.15,2013-06-22 09:10:00,
2013-06-22 05:20:00,59.7,58.6,30.19,SSE,157,0.0,0.0,96,0.00,,,0.00,0,Wunderground v.1.15,2013-06-22 09:20:00,
2013-06-22 05:30:00,60.0,58.9,30.19,SSE,157,0.0,0.0,96,0.00,,,0.00,0,Wunderground v.1.15,2013-06-22 09:30:00,
2013-06-22 05:40:00,60.0,58.9,30.19,SSE,157,0.0,0.0,96,0.00,,,0.00,0,Wunderground v.1.15,2013-06-22 09:40:00,
2013-06-22 05:50:00,60.0,58.9,30.19,SSE,157,0.0,0.0,96,0.00,,,0.00,5,Wunderground v.1.15,2013-06-22 09:50:00,
2013-06-22 06:00:00,60.4,59.3,30.19,SSE,157,0.0,0.0,96,0.00,,,0.00,11,Wunderground v.1.15,2013-06-22 10:00:00,
2013-06-22 06:10:00,59.5,58.4,30.19,SSE,157,0.0,0.0,96,0.00,,,0.00,16,Wunderground v.1.15,2013-06-22 10:10:00,
2013-06-22 06:20:00,59.7,58.6,30.19,SSE,157,0.0,0.0,96,0.00,,,0.00,30,Wunderground v.1.15,2013-06-22 10:20:00,
2013-06-22 06:30:00,59.5,58.4,30.19,SSE,157,0.0,0.0,96,0.00,,,0.00,53,Wunderground v.1.15,2013-06-22 10:30:00,
2013-06-22 06:40:00,60.7,59.8,30.19,SSE,157,0.0,0.0,97,0.00,,,0.00,74,Wunderground v.1.15,2013-06-22 10:40:00,
2013-06-22 06:50:00,61.8,60.9,30.19,SSE,157,0.0,0.0,97,0.00,,,0.00,102,Wunderground v.1.15,2013-06-22 10:50:00,
2013-06-22 07:00:00,62.6,61.7,30.18,SSE,157,0.0,0.0,97,0.00,,,0.00,128,Wunderground v.1.15,2013-06-22 11:00:00,
2013-06-22 07:10:00,64.1,63.2,30.18,SSE,157,0.0,0.0,97,0.00,,,0.00,158,Wunderground v.1.15,2013-06-22 11:10:00,
2013-06-22 07:20:00,64.3,63.1,30.17,WSW,257,0.0,0.0,96,0.00,,,0.00,190,Wunderground v.1.15,2013-06-22 11:20:00,
2013-06-22 07:30:00,65.5,64.3,30.18,West,262,0.0,0.0,96,0.00,,,0.00,220,Wunderground v.1.15,2013-06-22 11:30:00,
2013-06-22 07:40:00,66.5,64.7,30.18,WSW,244,0.0,0.0,94,0.00,,,0.00,255,Wunderground v.1.15,2013-06-22 11:40:00,
2013-06-22 07:50:00,67.3,64.9,30.19,West,262,0.0,0.0,92,0.00,,,0.00,290,Wunderground v.1.15,2013-06-22 11:50:00,
2013-06-22 08:00:00,68.0,64.6,30.18,West,262,0.0,0.0,89,0.00,,,0.00,329,Wunderground v.1.15,2013-06-22 12:00:00,
2013-06-22 08:10:00,69.2,64.8,30.19,WSW,252,0.0,0.0,86,0.00,,,0.00,357,Wunderground v.1.15,2013-06-22 12:10:00,
2013-06-22 08:20:00,70.2,65.1,30.18,SW,227,0.0,0.0,84,0.00,,,0.00,388,Wunderground v.1.15,2013-06-22 12:20:00,
2013-06-22 08:30:00,71.8,65.3,30.18,South,169,0.0,0.0,80,0.00,,,0.00,424,Wunderground v.1.15,2013-06-22 12:30:00,
2013-06-22 08:40:00,72.8,65.5,30.18,SW,215,0.0,0.0,78,0.00,,,0.00,452,Wunderground v.1.15,2013-06-22 12:40:00,
2013-06-22 08:50:00,73.4,64.6,30.19,WNW,299,0.0,0.0,74,0.00,,,0.00,483,Wunderground v.1.15,2013-06-22 12:50:00,
2013-06-22 09:00:00,73.9,63.5,30.19,South,182,1.0,2.0,70,0.00,,,0.00,513,Wunderground v.1.15,2013-06-22 13:00:00,
2013-06-22 09:10:00,74.1,64.9,30.19,WNW,296,1.0,1.0,73,0.00,,,0.00,541,Wunderground v.1.15,2013-06-22 13:10:00,
2013-06-22 09:20:00,74.4,63.1,30.20,West,271,0.0,0.0,68,0.00,,,0.00,568,Wunderground v.1.15,2013-06-22 13:20:00,
2013-06-22 09:30:00,74.0,63.2,30.21,WSW,248,0.0,0.0,69,0.00,,,0.00,598,Wunderground v.1.15,2013-06-22 13:30:00,
2013-06-22 09:40:00,74.5,64.5,30.20,West,261,0.0,0.0,71,0.00,,,0.00,628,Wunderground v.1.15,2013-06-22 13:40:00,
2013-06-22 09:50:00,75.1,64.2,30.20,SSE,155,0.0,0.0,69,0.00,,,0.00,647,Wunderground v.1.15,2013-06-22 13:50:00,
2013-06-22 10:00:00,75.9,64.6,30.20,SW,228,0.0,0.0,68,0.00,,,0.00,677,Wunderground v.1.15,2013-06-22 14:00:00,
2013-06-22 10:10:00,75.9,64.6,30.20,West,261,1.0,1.0,68,0.00,,,0.00,705,Wunderground v.1.15,2013-06-22 14:10:00,
2013-06-22 10:20:00,76.6,65.2,30.20,SSE,166,0.0,2.0,68,0.00,,,0.00,733,Wunderground v.1.15,2013-06-22 14:20:00,
2013-06-22 10:30:00,77.3,65.5,30.20,SSE,160,2.0,3.0,67,0.00,,,0.00,752,Wunderground v.1.15,2013-06-22 14:30:00,
2013-06-22 10:40:00,77.6,65.8,30.20,WSW,253,1.0,1.0,67,0.00,,,0.00,773,Wunderground v.1.15,2013-06-22 14:40:00,
2013-06-22 10:50:00,78.2,64.6,30.20,SW,229,0.0,0.0,63,0.00,,,0.00,796,Wunderground v.1.15,2013-06-22 14:50:00,
2013-06-22 11:00:00,78.5,64.9,30.20,SSW,200,1.0,1.0,63,0.00,,,0.00,819,Wunderground v.1.15,2013-06-22 15:00:00,
2013-06-22 11:10:00,79.2,66.4,30.21,SSE,152,0.0,0.0,65,0.00,,,0.00,835,Wunderground v.1.15,2013-06-22 15:10:00,
2013-06-22 11:20:00,79.4,65.7,30.21,West,276,1.0,2.0,63,0.00,,,0.00,854,Wunderground v.1.15,2013-06-22 15:20:00,
2013-06-22 11:30:00,79.5,65.8,30.21,WSW,250,1.0,3.0,63,0.00,,,0.00,872,Wunderground v.1.15,2013-06-22 15:30:00,
2013-06-22 11:40:00,80.1,65.4,30.21,SSE,158,2.0,2.0,61,0.00,,,0.00,882,Wunderground v.1.15,2013-06-22 15:40:00,
2013-06-22 11:50:00,80.5,66.3,30.21,WSW,248,1.0,5.0,62,0.00,,,0.00,898,Wunderground v.1.15,2013-06-22 15:50:00,
2013-06-22 12:00:00,80.5,65.8,30.21,WSW,247,2.0,2.0,61,0.00,,,0.00,907,Wunderground v.1.15,2013-06-22 16:00:00,
2013-06-22 12:10:00,81.1,67.3,30.20,South,176,1.0,1.0,63,0.00,,,0.00,916,Wunderground v.1.15,2013-06-22 16:10:00,
2013-06-22 12:20:00,81.0,66.8,30.20,SSE,150,1.0,4.0,62,0.00,,,0.00,919,Wunderground v.1.15,2013-06-22 16:20:00,
2013-06-22 12:30:00,81.8,67.5,30.20,South,169,1.0,2.0,62,0.00,,,0.00,930,Wunderground v.1.15,2013-06-22 16:30:00,
2013-06-22 12:40:00,82.3,67.5,30.19,SSE,157,1.0,2.0,61,0.00,,,0.00,942,Wunderground v.1.15,2013-06-22 16:40:00,
2013-06-22 12:50:00,82.2,68.8,30.19,South,178,3.0,3.0,64,0.00,,,0.00,944,Wunderground v.1.15,2013-06-22 16:50:00,
2013-06-22 13:00:00,82.1,68.7,30.19,SE,142,1.0,5.0,64,0.00,,,0.00,944,Wunderground v.1.15,2013-06-22 17:00:00,
2013-06-22 13:10:00,82.7,68.4,30.19,SSE,167,3.0,3.0,62,0.00,,,0.00,949,Wunderground v.1.15,2013-06-22 17:10:00,
2013-06-22 13:20:00,83.4,68.5,30.19,SSE,155,1.0,2.0,61,0.00,,,0.00,954,Wunderground v.1.15,2013-06-22 17:20:00,
2013-06-22 13:30:00,82.9,68.5,30.19,SW,219,0.0,1.0,62,0.00,,,0.00,951,Wunderground v.1.15,2013-06-22 17:30:00,
2013-06-22 13:40:00,83.6,67.8,30.18,SE,129,1.0,1.0,59,0.00,,,0.00,949,Wunderground v.1.15,2013-06-22 17:40:00,
2013-06-22 13:50:00,83.8,68.9,30.18,SW,234,1.0,1.0,61,0.00,,,0.00,947,Wunderground v.1.15,2013-06-22 17:50:00,
2013-06-22 14:00:00,84.1,69.7,30.18,West,272,2.0,2.0,62,0.00,,,0.00,939,Wunderground v.1.15,2013-06-22 18:00:00,
2013-06-22 14:10:00,84.3,69.9,30.18,ESE,121,2.0,4.0,62,0.00,,,0.00,928,Wunderground v.1.15,2013-06-22 18:10:00,
2013-06-22 14:20:00,84.7,68.3,30.17,SSE,151,2.0,2.0,58,0.00,,,0.00,919,Wunderground v.1.15,2013-06-22 18:20:00,
2013-06-22 14:30:00,85.5,70.0,30.17,WSW,242,1.0,2.0,60,0.00,,,0.00,896,Wunderground v.1.15,2013-06-22 18:30:00,
2013-06-22 14:40:00,85.0,69.1,30.17,ESE,111,0.0,4.0,59,0.00,,,0.00,891,Wunderground v.1.15,2013-06-22 18:40:00,
2013-06-22 14:50:00,85.0,69.1,30.16,SSE,150,4.0,4.0,59,0.00,,,0.00,886,Wunderground v.1.15,2013-06-22 18:50:00,
2013-06-22 15:00:00,85.3,69.3,30.15,SSE,163,1.0,1.0,59,0.00,,,0.00,877,Wunderground v.1.15,2013-06-22 19:00:00,
2013-06-22 15:10:00,85.2,69.7,30.15,South,175,2.0,2.0,60,0.00,,,0.00,867,Wunderground v.1.15,2013-06-22 19:10:00,
2013-06-22 15:20:00,85.1,69.7,30.14,SSE,147,2.0,3.0,60,0.00,,,0.00,851,Wunderground v.1.15,2013-06-22 19:20:00,
2013-06-22 15:30:00,85.7,70.2,30.14,SSE,157,2.0,2.0,60,0.00,,,0.00,819,Wunderground v.1.15,2013-06-22 19:30:00,
2013-06-22 15:40:00,85.4,68.4,30.13,SSE,157,2.0,3.0,57,0.00,,,0.00,777,Wunderground v.1.15,2013-06-22 19:40:00,
2013-06-22 15:50:00,85.5,70.0,30.13,South,189,3.0,3.0,60,0.00,,,0.00,784,Wunderground v.1.15,2013-06-22 19:50:00,
2013-06-22 16:00:00,85.7,68.7,30.12,SSE,150,3.0,3.0,57,0.00,,,0.00,731,Wunderground v.1.15,2013-06-22 20:00:00,
2013-06-22 16:10:00,85.8,69.3,30.12,SW,226,2.0,2.0,58,0.00,,,0.00,733,Wunderground v.1.15,2013-06-22 20:10:00,
2013-06-22 16:20:00,86.4,69.4,30.12,South,171,2.0,2.0,57,0.00,,,0.00,729,Wunderground v.1.15,2013-06-22 20:20:00,
2013-06-22 16:30:00,86.9,70.3,30.12,SW,219,1.0,1.0,58,0.00,,,0.00,693,Wunderground v.1.15,2013-06-22 20:30:00,
2013-06-22 16:40:00,86.9,69.8,30.12,WSW,245,1.0,2.0,57,0.00,,,0.00,663,Wunderground v.1.15,2013-06-22 20:40:00,
2013-06-22 16:50:00,86.6,67.4,30.12,SW,229,1.0,1.0,53,0.00,,,0.00,594,Wunderground v.1.15,2013-06-22 20:50:00,
2013-06-22 17:00:00,86.3,69.3,30.12,SSE,160,1.0,1.0,57,0.00,,,0.00,573,Wunderground v.1.15,2013-06-22 21:00:00,
2013-06-22 17:10:00,86.5,68.4,30.11,SW,234,0.0,0.0,55,0.00,,,0.00,536,Wunderground v.1.15,2013-06-22 21:10:00,
2013-06-22 17:20:00,85.9,68.9,30.11,South,171,1.0,1.0,57,0.00,,,0.00,513,Wunderground v.1.15,2013-06-22 21:20:00,
2013-06-22 17:30:00,85.6,70.1,30.10,SE,127,3.0,4.0,60,0.00,,,0.00,519,Wunderground v.1.15,2013-06-22 21:30:00,
2013-06-22 17:40:00,85.3,69.8,30.09,SSE,154,3.0,3.0,60,0.00,,,0.00,107,Wunderground v.1.15,2013-06-22 21:40:00,
2013-06-22 17:50:00,85.1,69.7,30.09,SE,142,2.0,2.0,60,0.00,,,0.00,251,Wunderground v.1.15,2013-06-22 21:50:00,
2013-06-22 18:00:00,84.7,69.8,30.08,SSE,150,3.0,3.0,61,0.00,,,0.00,95,Wunderground v.1.15,2013-06-22 22:00:00,
2013-06-22 18:10:00,84.5,69.6,30.08,SSE,153,1.0,3.0,61,0.00,,,0.00,176,Wunderground v.1.15,2013-06-22 22:10:00,
2013-06-22 18:20:00,84.4,69.0,30.08,SSE,161,1.0,1.0,60,0.00,,,0.00,309,Wunderground v.1.15,2013-06-22 22:20:00,
2013-06-22 18:30:00,84.3,69.4,30.08,South,169,1.0,1.0,61,0.00,,,0.00,278,Wunderground v.1.15,2013-06-22 22:30:00,
2013-06-22 18:40:00,83.8,69.9,30.08,SE,130,3.0,8.0,63,0.00,,,0.00,200,Wunderground v.1.15,2013-06-22 22:40:00,
2013-06-22 18:50:00,83.2,69.8,30.08,SSE,155,4.0,4.0,64,0.00,,,0.00,90,Wunderground v.1.15,2013-06-22 22:50:00,
2013-06-22 19:00:00,82.8,69.4,30.08,SSE,154,2.0,2.0,64,0.00,,,0.00,60,Wunderground v.1.15,2013-06-22 23:00:00,
2013-06-22 19:10:00,82.6,69.6,30.07,SE,145,2.0,2.0,65,0.00,,,0.00,53,Wunderground v.1.15,2013-06-22 23:10:00,
2013-06-22 19:20:00,82.4,69.0,30.08,SSE,153,1.0,2.0,64,0.00,,,0.00,51,Wunderground v.1.15,2013-06-22 23:20:00,
2013-06-22 19:30:00,82.0,69.5,30.07,SSE,163,1.0,1.0,66,0.00,,,0.00,49,Wunderground v.1.15,2013-06-22 23:30:00,
2013-06-22 19:40:00,81.3,69.3,30.07,SSE,151,1.0,4.0,67,0.00,,,0.00,39,Wunderground v.1.15,2013-06-22 23:40:00,
2013-06-22 19:50:00,80.7,69.2,30.08,SSE,157,1.0,2.0,68,0.00,,,0.00,35,Wunderground v.1.15,2013-06-22 23:50:00,
2013-06-22 20:00:00,80.4,68.9,30.08,SSE,156,2.0,2.0,68,0.00,,,0.00,30,Wunderground v.1.15,2013-06-23 00:00:00,
2013-06-22 20:10:00,79.8,68.7,30.08,SSE,150,1.0,1.0,69,0.00,,,0.00,21,Wunderground v.1.15,2013-06-23 00:10:00,
2013-06-22 20:20:00,78.9,68.7,30.08,SSE,150,0.0,0.0,71,0.00,,,0.00,12,Wunderground v.1.15,2013-06-23 00:20:00,
2013-06-22 20:30:00,78.2,68.8,30.09,SSE,150,0.0,0.0,73,0.00,,,0.00,5,Wunderground v.1.15,2013-06-23 00:30:00,
2013-06-22 20:40:00,77.3,68.8,30.09,SSE,150,0.0,0.0,75,0.00,,,0.00,0,Wunderground v.1.15,2013-06-23 00:40:00,
2013-06-22 20:50:00,76.5,68.4,30.09,SSE,150,0.0,0.0,76,0.00,,,0.00,0,Wunderground v.1.15,2013-06-23 00:50:00,
2013-06-22 21:00:00,76.0,68.3,30.09,SSE,150,0.0,0.0,77,0.00,,,0.00,0,Wunderground v.1.15,2013-06-23 01:00:00,
2013-06-22 21:10:00,75.9,68.2,30.10,SSE,150,0.0,0.0,77,0.00,,,0.00,0,Wunderground v.1.15,2013-06-23 01:10:00,
2013-06-22 21:20:00,76.2,68.1,30.10,SSE,150,0.0,0.0,76,0.00,,,0.00,0,Wunderground v.1.15,2013-06-23 01:20:00,
2013-06-22 21:30:00,76.6,68.1,30.11,SSE,159,0.0,0.0,75,0.00,,,0.00,0,Wunderground v.1.15,2013-06-23 01:30:00,
2013-06-22 21:40:00,76.4,68.3,30.11,SE,140,0.0,0.0,76,0.00,,,0.00,0,Wunderground v.1.15,2013-06-23 01:40:00,
2013-06-22 21:50:00,76.6,68.1,30.11,SE,142,0.0,1.0,75,0.00,,,0.00,0,Wunderground v.1.15,2013-06-23 01:50:00,
2013-06-22 22:00:00,76.5,68.4,30.11,SSE,155,1.0,1.0,76,0.00,,,0.00,0,Wunderground v.1.15,2013-06-23 02:00:00,
2013-06-22 22:10:00,76.2,68.5,30.11,SSE,150,1.0,3.0,77,0.00,,,0.00,0,Wunderground v.1.15,2013-06-23 02:10:00,
2013-06-22 22:20:00,76.1,68.4,30.11,SSE,165,1.0,1.0,77,0.00,,,0.00,0,Wunderground v.1.15,2013-06-23 02:20:00,
2013-06-22 22:30:00,75.9,68.2,30.11,SSW,200,0.0,0.0,77,0.00,,,0.00,0,Wunderground v.1.15,2013-06-23 02:30:00,
2013-06-22 22:40:00,75.5,68.2,30.11,SSE,165,0.0,0.0,78,0.00,,,0.00,0,Wunderground v.1.15,2013-06-23 02:40:00,
2013-06-22 22:50:00,75.0,68.0,30.12,SSE,153,0.0,1.0,79,0.00,,,0.00,0,Wunderground v.1.15,2013-06-23 02:50:00,
2013-06-22 23:00:00,74.6,68.0,30.12,SSE,162,1.0,1.0,80,0.00,,,0.00,0,Wunderground v.1.15,2013-06-23 03:00:00,
2013-06-22 23:10:00,74.2,68.0,30.12,SSE,157,0.0,0.0,81,0.00,,,0.00,0,Wunderground v.1.15,2013-06-23 03:10:00,
2013-06-22 23:20:00,73.9,68.1,30.13,South,173,0.0,0.0,82,0.00,,,0.00,0,Wunderground v.1.15,2013-06-23 03:20:00,
2013-06-22 23:30:00,73.4,67.9,30.12,SSE,157,0.0,0.0,83,0.00,,,0.00,0,Wunderground v.1.15,2013-06-23 03:30:00,
2013-06-22 23:40:00,72.8,67.7,30.12,SSE,160,0.0,0.0,84,0.00,,,0.00,0,Wunderground v.1.15,2013-06-23 03:40:00,
2013-06-22 23:50:00,72.7,67.9,30.12,SSE,160,0.0,0.0,85,0.00,,,0.00,0,Wunderground v.1.15,2013-06-23 03:50:00,